Overview Statistics Trail Chart Weather Telemetry Raw packets
 

This is the latest recevied weather packets stored in our database for station/object K4KMJ. If no packets are shown the sender has not sent any weather packets the latest 10 day(s).

<< 68 69 70 71 72 73 74 >>
Time Temp. Humidity Pressure Rain* Wind** Luminosity Snow
1788198942 28.33° C 87% 1019.3 hPa 0 mm - 228 W/m² -
1788198638 27.78° C 89% 1019.3 hPa 0 mm - 320 W/m² -
1788198332 27.78° C 90% 1019.2 hPa 0 mm - 309 W/m² -
1788198027 27.22° C 90% 1018.9 hPa 0 mm - 622 W/m² -
1788197725 27.22° C 91% 1019.3 hPa 0 mm - 363 W/m² -
1788197422 26.67° C 92% 1019.5 hPa 0 mm - 377 W/m² -
1788197116 26.67° C 93% 1019.6 hPa 0 mm - 1020 W/m² -
1788196811 26.11° C 94% 1019.7 hPa 0 mm - 436 W/m² -
1788196507 26.11° C 94% 1019.8 hPa 0 mm - 443 W/m² -
1788196204 26.67° C 93% 1020 hPa 0 mm - 192 W/m² -
1788195900 26.67° C 92% 1020.1 hPa 0 mm - 154 W/m² -
1788195597 26.67° C 91% 1020.2 hPa 0 mm - 137 W/m² -
1788195297 27.22° C 90% 1019.9 hPa 0 mm - 131 W/m² -
1788194994 27.78° C 88% 1019.8 hPa 0 mm - 114 W/m² -
1788194689 28.89° C 84% 1019.8 hPa 0 mm - 93 W/m² -
1788194384 31.11° C 80% 1019.7 hPa 0 mm - 135 W/m² -
1788194080 31.11° C 78% 1019.8 hPa 0 mm - 275 W/m² -
1788193778 31.67° C 75% 1019.6 hPa 0 mm - 264 W/m² -
1788193474 31.67° C 76% 1019.7 hPa 0 mm - 903 W/m² -
1788193172 32.78° C 78% 1019.8 hPa 0 mm - 200 W/m² -
1788192870 31.67° C 81% 1019.7 hPa 0 mm - 854 W/m² -
1788192565 30.56° C 83% 1019.8 hPa 0 mm - 152 W/m² -
1788192259 30.56° C 83% 1020.2 hPa 0 mm - 176 W/m² -
1788191959 30.56° C 81% 1020.2 hPa 0 mm - 137 W/m² -
1788191659 31.11° C 81% 1020.1 hPa 0 mm - 121 W/m² -

* Rain latest hour (hover to see other rain measurements)
** Current wind speed in m/s (hover to see current wind gust speed)